Terminal Aerodrome Forecast
Issued by NWS Bismarck, ND

Home | Current Version | Previous Version | Graphics & Text | Print | Product List | Glossary On
Versions: 1 2 3 4 5 6 7 8 9 10 11 12 13 14 15 16 17 18 19
000
FTUS43 KBIS 062340
TAFBIS
TAF
KBIS 062340Z 0700/0724 13012KT P6SM VCTS SCT015CB BKN100
     FM070400 VRB05KT 3SM -SHRA BR SCT015 OVC025
     FM070900 34012KT P6SM VCSH OVC008
     FM071600 32018G26KT P6SM BKN015 OVC025
     FM071900 33018G26KT P6SM OVC025=

USA.gov is the U.S. government's official web portal to all federal, state and local government web resources and services.